createdAt,value
2023-03-15T00:01:01.277Z,661.1
2023-03-15T00:02:03.796Z,661.6
2023-03-15T00:03:06.047Z,661.8
2023-03-15T00:04:08.280Z,661.4
2023-03-15T00:05:10.503Z,661.4
2023-03-15T00:06:13.008Z,661
2023-03-15T00:07:15.537Z,660.7
2023-03-15T00:08:18.074Z,660.7
2023-03-15T00:09:20.746Z,661.1
2023-03-15T00:10:22.965Z,661.3
2023-03-15T00:11:25.506Z,661.3
2023-03-15T00:12:28.015Z,660.9
2023-03-15T00:13:30.526Z,661.1
2023-03-15T00:14:33.067Z,660.8
2023-03-15T00:15:35.841Z,660.8
2023-03-15T00:16:38.097Z,660.4
2023-03-15T00:17:40.635Z,660.6
2023-03-15T00:18:43.241Z,660
2023-03-15T00:19:45.485Z,660.1
2023-03-15T00:20:47.716Z,660.4
2023-03-15T00:21:50.144Z,660.1
2023-03-15T00:22:52.940Z,659.8
2023-03-15T00:23:55.463Z,659.7
2023-03-15T00:24:58.069Z,659.7
2023-03-15T00:26:00.610Z,659.8
2023-03-15T00:27:02.880Z,659.9
2023-03-15T00:28:05.447Z,660.3
2023-03-15T00:29:07.377Z,660.1
2023-03-15T00:30:09.906Z,660.1
2023-03-15T00:31:12.742Z,660.1
2023-03-15T00:32:14.997Z,660.4
2023-03-15T00:33:17.526Z,660.1
2023-03-15T00:34:19.748Z,660.4
2023-03-15T00:35:21.974Z,660.7
2023-03-15T00:36:24.495Z,660.7
2023-03-15T00:37:27.019Z,660.7
2023-03-15T00:38:29.431Z,660.6
2023-03-15T00:39:31.970Z,660.4
2023-03-15T00:40:34.456Z,660.3
2023-03-15T00:41:36.999Z,660.3
2023-03-15T00:42:39.501Z,660.2
2023-03-15T00:43:42.024Z,660.1
2023-03-15T00:44:44.576Z,659.7
2023-03-15T00:45:47.067Z,659.9
2023-03-15T00:46:50.008Z,659
2023-03-15T00:47:51.991Z,658.5
2023-03-15T00:48:54.510Z,658
2023-03-15T00:49:57.050Z,657.7
2023-03-15T00:50:59.548Z,656.7
2023-03-15T00:52:02.334Z,655.7
2023-03-15T00:53:04.891Z,654.6
2023-03-15T00:54:07.391Z,654
2023-03-15T00:55:10.494Z,652.8
2023-03-15T00:56:13.181Z,652.7
2023-03-15T00:57:15.148Z,652.5
2023-03-15T00:58:18.307Z,652.3
2023-03-15T00:59:20.894Z,652.1
2023-03-15T01:00:23.124Z,652.5
2023-03-15T01:01:25.979Z,652
2023-03-15T01:02:28.742Z,652.3
2023-03-15T01:03:31.256Z,652.5
2023-03-15T01:04:33.833Z,652.7
2023-03-15T01:05:36.023Z,653
2023-03-15T01:06:37.961Z,653.5
2023-03-15T01:07:40.594Z,653.5
2023-03-15T01:08:42.917Z,653.2
2023-03-15T01:09:48.535Z,653.8
2023-03-15T01:10:50.910Z,653.9
2023-03-15T01:11:53.604Z,654.5
2023-03-15T01:12:55.809Z,655
2023-03-15T01:13:58.078Z,655
2023-03-15T01:15:00.661Z,655.8
2023-03-15T01:16:03.244Z,655.7
2023-03-15T01:17:05.803Z,655.7
2023-03-15T01:18:08.040Z,655.9
2023-03-15T01:19:10.534Z,656
2023-03-15T01:20:13.046Z,656
2023-03-15T01:21:15.030Z,656.1
2023-03-15T01:22:16.973Z,655.6
2023-03-15T01:23:19.204Z,655.8
2023-03-15T01:24:21.441Z,655.5
2023-03-15T01:25:23.947Z,655.6
2023-03-15T01:26:26.476Z,655.9
2023-03-15T01:27:29.092Z,656.2
2023-03-15T01:28:31.326Z,657
2023-03-15T01:29:33.559Z,656.8
2023-03-15T01:30:36.046Z,657
2023-03-15T01:31:38.695Z,657.2
2023-03-15T01:32:41.469Z,657.1
2023-03-15T01:33:43.968Z,657.2
2023-03-15T01:34:46.463Z,657.1
2023-03-15T01:35:48.960Z,655.9
2023-03-15T01:36:51.517Z,655.6
2023-03-15T01:37:54.079Z,655.1
2023-03-15T01:38:56.791Z,655.1
2023-03-15T01:39:59.273Z,655.2
2023-03-15T01:41:01.794Z,655.2
2023-03-15T01:42:04.291Z,655.3
2023-03-15T01:43:07.068Z,655.5
2023-03-15T01:44:09.284Z,655.6
2023-03-15T01:45:11.826Z,656.1
2023-03-15T01:46:14.024Z,655.8
2023-03-15T01:47:16.517Z,656
2023-03-15T01:48:18.476Z,656.3
2023-03-15T01:49:20.468Z,656.4
2023-03-15T01:50:23.068Z,655.8
2023-03-15T01:51:25.570Z,656.1
2023-03-15T01:52:27.789Z,655.5
2023-03-15T01:53:30.033Z,654.7
2023-03-15T01:54:32.044Z,654.9
2023-03-15T01:55:34.245Z,654.1
2023-03-15T01:56:36.510Z,654.2
2023-03-15T01:57:39.013Z,654.2
2023-03-15T01:58:41.709Z,653.6
2023-03-15T01:59:43.997Z,653.5
2023-03-15T02:00:46.507Z,653
2023-03-15T02:01:49.242Z,653.3
2023-03-15T02:02:51.542Z,653
2023-03-15T02:03:54.032Z,652.8
2023-03-15T02:04:56.523Z,652.4
2023-03-15T02:05:58.774Z,653
2023-03-15T02:07:01.197Z,652.9
2023-03-15T02:08:03.694Z,652.5
2023-03-15T02:09:06.180Z,652.9
2023-03-15T02:10:08.729Z,653.4
2023-03-15T02:11:11.064Z,653.6
2023-03-15T02:12:13.594Z,653.5
2023-03-15T02:13:15.829Z,653.4
2023-03-15T02:14:18.200Z,653.1
2023-03-15T02:15:20.447Z,652.6
2023-03-15T02:16:22.876Z,652.5
2023-03-15T02:17:25.091Z,652.4
2023-03-15T02:18:27.327Z,652.2
2023-03-15T02:19:29.574Z,652
2023-03-15T02:20:31.804Z,652
2023-03-15T02:21:34.297Z,651.8
2023-03-15T02:22:36.493Z,651.3
2023-03-15T02:23:38.736Z,651.5
2023-03-15T02:24:40.978Z,651.3
2023-03-15T02:25:43.273Z,650.9
2023-03-15T02:26:45.816Z,650.8
2023-03-15T02:27:48.344Z,650.6
2023-03-15T02:28:50.860Z,650.6
2023-03-15T02:29:53.188Z,650.4
2023-03-15T02:30:55.697Z,650.5
2023-03-15T02:31:58.714Z,650.2
2023-03-15T02:33:00.955Z,650.3
2023-03-15T02:34:03.495Z,649.7
2023-03-15T02:35:05.744Z,650.3
2023-03-15T02:36:08.076Z,649.5
2023-03-15T02:37:10.613Z,649.7
2023-03-15T02:38:13.147Z,649.5
2023-03-15T02:39:15.638Z,649.3
2023-03-15T02:40:18.131Z,648.8
2023-03-15T02:41:20.351Z,648.7
2023-03-15T02:42:22.659Z,648
2023-03-15T02:43:24.912Z,647.6
2023-03-15T02:44:27.462Z,647.8
2023-03-15T02:45:30.079Z,647
2023-03-15T02:46:32.576Z,646.1
2023-03-15T02:47:35.455Z,645.6
2023-03-15T02:48:38.040Z,646.3
2023-03-15T02:49:40.337Z,645.6
2023-03-15T02:50:42.838Z,645.5
2023-03-15T02:51:45.327Z,644.4
2023-03-15T02:52:47.556Z,644.2
2023-03-15T02:53:50.092Z,643.7
2023-03-15T02:54:52.320Z,643.1
2023-03-15T02:55:54.839Z,642.8
2023-03-15T02:56:57.084Z,642.3
2023-03-15T02:57:59.565Z,642.2
2023-03-15T02:59:02.080Z,641.5
2023-03-15T03:00:04.649Z,641
2023-03-15T03:01:07.645Z,640.8
2023-03-15T03:02:10.384Z,640.3
2023-03-15T03:03:12.318Z,640.5
2023-03-15T03:04:14.814Z,639.8
2023-03-15T03:05:17.321Z,639.8
2023-03-15T03:06:19.560Z,638.7
2023-03-15T03:07:22.053Z,638.9
2023-03-15T03:08:24.540Z,638
2023-03-15T03:09:27.100Z,638
2023-03-15T03:10:29.620Z,637.2
2023-03-15T03:11:31.582Z,637.3
2023-03-15T03:12:34.087Z,636.2
2023-03-15T03:13:36.649Z,636.1
2023-03-15T03:14:38.898Z,636.8
2023-03-15T03:15:42.098Z,635.6
2023-03-15T03:16:45.538Z,635.7
2023-03-15T03:17:48.041Z,635.2
2023-03-15T03:18:50.528Z,635.1
2023-03-15T03:19:52.784Z,635.1
2023-03-15T03:20:55.270Z,634.4
2023-03-15T03:21:57.487Z,634.8
2023-03-15T03:23:00.015Z,633.8
2023-03-15T03:24:02.539Z,633.4
2023-03-15T03:25:05.024Z,633.6
2023-03-15T03:26:06.960Z,632.8
2023-03-15T03:27:08.896Z,632.8
2023-03-15T03:28:11.380Z,632.2
2023-03-15T03:29:13.311Z,631.9
2023-03-15T03:30:15.828Z,631.1
2023-03-15T03:31:18.841Z,631.4
2023-03-15T03:32:21.645Z,631.1
2023-03-15T03:33:23.876Z,630.1
2023-03-15T03:34:26.365Z,630.1
2023-03-15T03:35:28.391Z,629.6
2023-03-15T03:36:30.591Z,629.2
2023-03-15T03:37:32.538Z,629.4
2023-03-15T03:38:35.013Z,628.7
2023-03-15T03:39:37.214Z,627.9
2023-03-15T03:40:39.733Z,628.2
2023-03-15T03:41:42.357Z,628.4
2023-03-15T03:42:44.608Z,628.3
2023-03-15T03:43:47.117Z,627.6
2023-03-15T03:44:49.310Z,627.3
2023-03-15T03:45:51.771Z,627
2023-03-15T03:46:54.269Z,626.9
2023-03-15T03:47:56.991Z,626.3
2023-03-15T03:48:59.492Z,626.6
2023-03-15T03:50:02.171Z,625.6
2023-03-15T03:51:04.737Z,625.8
2023-03-15T03:52:07.285Z,625.1
2023-03-15T03:53:09.559Z,625.2
2023-03-15T03:54:11.286Z,624.6
2023-03-15T03:55:13.938Z,624.1
2023-03-15T03:56:16.495Z,623.7
2023-03-15T03:57:19.029Z,623.8
2023-03-15T03:58:21.256Z,624.1
2023-03-15T03:59:23.484Z,623.6
2023-03-15T04:00:25.687Z,623.5
2023-03-15T04:01:28.348Z,623.3
2023-03-15T04:02:30.804Z,622.9
2023-03-15T04:03:33.565Z,622.5
2023-03-15T04:04:36.402Z,622.3
2023-03-15T04:05:38.665Z,622.1
2023-03-15T04:06:40.878Z,621.6
2023-03-15T04:07:43.135Z,621.4
2023-03-15T04:08:45.379Z,620.9
2023-03-15T04:09:47.906Z,621
2023-03-15T04:10:49.863Z,620.7
2023-03-15T04:11:52.126Z,620.5
2023-03-15T04:12:54.330Z,620.2
2023-03-15T04:13:56.835Z,619.8
2023-03-15T04:14:59.328Z,620.4
2023-03-15T04:16:01.800Z,619.8
2023-03-15T04:17:04.718Z,619.6
2023-03-15T04:18:07.151Z,619.2
2023-03-15T04:19:09.940Z,619.4
2023-03-15T04:20:12.538Z,619.3
2023-03-15T04:21:15.075Z,618.7
2023-03-15T04:22:17.330Z,618.6
2023-03-15T04:23:19.839Z,618.7
2023-03-15T04:24:22.082Z,618.3
2023-03-15T04:25:24.620Z,618.1
2023-03-15T04:26:27.145Z,618.4
2023-03-15T04:27:29.662Z,618.2
2023-03-15T04:28:31.350Z,617.9
2023-03-15T04:29:33.846Z,617.5
2023-03-15T04:30:36.414Z,617.5
2023-03-15T04:31:39.384Z,617
2023-03-15T04:32:42.121Z,617.1
2023-03-15T04:33:44.415Z,616.6
2023-03-15T04:35:01.693Z,616.2
2023-03-15T04:36:04.044Z,615.9
2023-03-15T04:37:06.393Z,615.8
2023-03-15T04:38:08.416Z,615.7
2023-03-15T04:39:10.950Z,616
2023-03-15T04:40:13.164Z,615.6
2023-03-15T04:41:15.170Z,615.1
2023-03-15T04:42:17.686Z,615.4
2023-03-15T04:43:20.222Z,614.8
2023-03-15T04:44:22.450Z,614.7
2023-03-15T04:45:24.660Z,614.6
2023-03-15T04:46:26.834Z,614.5
2023-03-15T04:47:29.345Z,614.5
2023-03-15T04:48:31.891Z,614.1
2023-03-15T04:49:34.391Z,613.8
2023-03-15T04:50:37.086Z,613.9
2023-03-15T04:51:39.596Z,613.2
2023-03-15T04:52:42.107Z,613.1
2023-03-15T04:53:44.598Z,613.2
2023-03-15T04:54:47.115Z,613
2023-03-15T04:55:49.624Z,613.1
2023-03-15T04:56:52.145Z,612.7
2023-03-15T04:57:54.364Z,612.8
2023-03-15T04:58:56.583Z,612.6
2023-03-15T04:59:59.102Z,612.5
2023-03-15T05:01:01.677Z,612.5
2023-03-15T05:02:06.053Z,612.1
2023-03-15T05:03:08.036Z,611.9
2023-03-15T05:04:10.269Z,611.9
2023-03-15T05:05:12.746Z,611.5
2023-03-15T05:06:15.446Z,611.5
2023-03-15T05:07:17.993Z,611.8
2023-03-15T05:08:19.416Z,611.2
2023-03-15T05:09:21.724Z,611
2023-03-15T05:10:24.283Z,610.8
2023-03-15T05:11:26.842Z,611.1
2023-03-15T05:12:29.061Z,610.6
2023-03-15T05:13:31.573Z,610.5
2023-03-15T05:14:33.806Z,610.5
2023-03-15T05:15:35.728Z,610.4
2023-03-15T05:16:39.082Z,610.4
2023-03-15T05:17:41.554Z,609.7
2023-03-15T05:18:44.074Z,609.9
2023-03-15T05:19:46.569Z,609.8
2023-03-15T05:20:48.784Z,609.5
2023-03-15T05:21:51.552Z,609.2
2023-03-15T05:22:54.081Z,608.5
2023-03-15T05:23:56.584Z,608.7
2023-03-15T05:24:59.067Z,609
2023-03-15T05:26:01.623Z,608.5
2023-03-15T05:27:04.266Z,608.4
2023-03-15T05:28:06.514Z,607.7
2023-03-15T05:29:09.018Z,607.9
2023-03-15T05:30:11.510Z,607.7
2023-03-15T05:31:14.034Z,607.6
2023-03-15T05:32:16.573Z,607.1
2023-03-15T05:33:19.061Z,607.4
2023-03-15T05:34:21.277Z,607
2023-03-15T05:35:23.918Z,606.8
2023-03-15T05:36:26.474Z,607
2023-03-15T05:37:29.122Z,606.7
2023-03-15T05:38:31.372Z,606.7
2023-03-15T05:39:33.306Z,606.8
2023-03-15T05:40:35.268Z,605.9
2023-03-15T05:41:37.512Z,606.1
2023-03-15T05:42:39.737Z,606.1
2023-03-15T05:43:42.249Z,605.8
2023-03-15T05:44:44.184Z,605.5
2023-03-15T05:45:47.023Z,605.5
2023-03-15T05:46:49.278Z,605.3
2023-03-15T05:47:51.492Z,605
2023-03-15T05:48:53.712Z,604.9
2023-03-15T05:49:55.653Z,604.6
2023-03-15T05:50:58.188Z,604.6
2023-03-15T05:52:00.391Z,604.1
2023-03-15T05:53:02.776Z,604
2023-03-15T05:54:05.430Z,603.8
2023-03-15T05:55:07.932Z,603.9
2023-03-15T05:56:10.230Z,603.3
2023-03-15T05:57:12.457Z,603.6
2023-03-15T05:58:14.694Z,603.5
2023-03-15T05:59:16.909Z,603.3
2023-03-15T06:00:19.426Z,602.5
2023-03-15T06:01:21.941Z,602.9
2023-03-15T06:02:24.189Z,602.8
2023-03-15T06:03:27.012Z,602.2
2023-03-15T06:04:29.654Z,602
2023-03-15T06:05:32.186Z,601.3
2023-03-15T06:06:35.894Z,601.8
2023-03-15T06:07:38.400Z,601.3
2023-03-15T06:08:40.742Z,601.3
2023-03-15T06:09:43.004Z,601.5
2023-03-15T06:10:44.977Z,601.1
2023-03-15T06:11:47.570Z,601.3
2023-03-15T06:12:49.841Z,600.6
2023-03-15T06:13:52.116Z,600.5
2023-03-15T06:14:54.614Z,600.3
2023-03-15T06:15:56.847Z,600
2023-03-15T06:16:59.532Z,599.9
2023-03-15T06:18:01.843Z,600.2
2023-03-15T06:19:04.354Z,599.6
2023-03-15T06:20:06.447Z,599.8
2023-03-15T06:21:09.091Z,599.9
2023-03-15T06:22:11.642Z,599.6
2023-03-15T06:23:14.190Z,599.2
2023-03-15T06:24:17.006Z,599.2
2023-03-15T06:25:19.582Z,599.2
2023-03-15T06:26:21.868Z,599.1
2023-03-15T06:27:24.412Z,599.1
2023-03-15T06:28:26.930Z,599
2023-03-15T06:29:29.454Z,599.1
2023-03-15T06:30:32.070Z,598.7
2023-03-15T06:31:34.661Z,598.8
2023-03-15T06:32:37.221Z,598.6
2023-03-15T06:33:38.905Z,598.5
2023-03-15T06:34:41.476Z,598.1
2023-03-15T06:35:43.811Z,598.2
2023-03-15T06:36:46.331Z,597.8
2023-03-15T06:37:48.842Z,597.6
2023-03-15T06:38:51.059Z,597.9
2023-03-15T06:39:53.678Z,598
2023-03-15T06:40:56.258Z,598.1
2023-03-15T06:41:58.858Z,598.1
2023-03-15T06:43:01.108Z,597.7
2023-03-15T06:44:03.635Z,598
2023-03-15T06:45:06.169Z,597.6
2023-03-15T06:46:08.956Z,597.4
2023-03-15T06:47:11.535Z,597.6
2023-03-15T06:48:13.769Z,597.3
2023-03-15T06:49:16.274Z,597.3
2023-03-15T06:50:18.244Z,597
2023-03-15T06:51:20.754Z,597.1
2023-03-15T06:52:22.997Z,597
2023-03-15T06:53:25.534Z,596.9
2023-03-15T06:54:27.777Z,597.1
2023-03-15T06:55:30.410Z,596.8
2023-03-15T06:56:32.929Z,597.2
2023-03-15T06:57:35.145Z,597.2
2023-03-15T06:58:37.398Z,597.1
2023-03-15T06:59:39.909Z,596.8
2023-03-15T07:00:42.228Z,596.9
2023-03-15T07:01:44.841Z,596.9
2023-03-15T07:02:47.840Z,596.9
2023-03-15T07:03:50.145Z,596.9
2023-03-15T07:04:52.749Z,597
2023-03-15T07:05:55.296Z,596.8
2023-03-15T07:06:57.887Z,596.3
2023-03-15T07:07:59.854Z,596.4
2023-03-15T07:09:02.396Z,596.7
2023-03-15T07:10:04.644Z,596.6
2023-03-15T07:11:07.284Z,596.7
2023-03-15T07:12:09.813Z,596.2
2023-03-15T07:13:12.330Z,596.2
2023-03-15T07:14:14.870Z,596.2
2023-03-15T07:15:19.284Z,596.2
2023-03-15T07:16:21.934Z,595.8
2023-03-15T07:17:24.503Z,595.4
2023-03-15T07:18:27.047Z,595.3
2023-03-15T07:19:29.560Z,595.3
2023-03-15T07:20:31.722Z,595.1
2023-03-15T07:21:33.934Z,595.1
2023-03-15T07:22:36.487Z,595.1
2023-03-15T07:23:38.756Z,594.6
2023-03-15T07:24:41.299Z,594.9
2023-03-15T07:26:49.014Z,594.4
2023-03-15T07:27:51.264Z,594.5
2023-03-15T07:28:53.205Z,593.9
2023-03-15T07:29:55.713Z,594.3
2023-03-15T07:30:57.976Z,594.1
2023-03-15T07:32:00.678Z,593.9
2023-03-15T07:33:03.705Z,594.2
2023-03-15T07:34:06.012Z,593.9
2023-03-15T07:35:08.306Z,594.2
2023-03-15T07:36:10.572Z,593.7
2023-03-15T07:37:13.093Z,594.2
2023-03-15T07:38:15.665Z,593.9
2023-03-15T07:39:17.892Z,593.4
2023-03-15T07:40:20.265Z,593.4
2023-03-15T07:41:22.779Z,593.4
2023-03-15T07:42:25.399Z,593.4
2023-03-15T07:43:27.968Z,593.6
2023-03-15T07:44:30.469Z,593.3
2023-03-15T07:45:32.967Z,593.4
2023-03-15T07:46:36.173Z,593.4
2023-03-15T07:47:38.440Z,593.7
2023-03-15T07:48:40.978Z,593.6
2023-03-15T07:49:43.484Z,593.5
2023-03-15T07:50:45.707Z,593.3
2023-03-15T07:51:47.956Z,593.4
2023-03-15T07:52:50.482Z,593.2
2023-03-15T07:53:52.451Z,593.2
2023-03-15T07:54:54.719Z,593.9
2023-03-15T07:55:56.663Z,593.6
2023-03-15T07:56:58.897Z,593.2
2023-03-15T07:58:01.621Z,593.3
2023-03-15T07:59:04.188Z,593.8
2023-03-15T08:00:06.832Z,594
2023-03-15T08:01:09.347Z,593.1
2023-03-15T08:02:12.011Z,593.4
2023-03-15T08:03:14.739Z,593.6
2023-03-15T08:04:17.294Z,593.9
2023-03-15T08:05:19.537Z,594
2023-03-15T08:06:21.792Z,594.2
2023-03-15T08:07:23.787Z,593.9
2023-03-15T08:08:26.038Z,594.3
2023-03-15T08:09:28.608Z,593.9
2023-03-15T08:10:31.054Z,594.1
2023-03-15T08:11:33.385Z,594.4
2023-03-15T08:12:35.675Z,594.1
2023-03-15T08:13:38.062Z,594.6
2023-03-15T08:14:40.702Z,594.4
2023-03-15T08:15:42.960Z,594.6
2023-03-15T08:16:45.795Z,594.5
2023-03-15T08:17:48.400Z,594.2
2023-03-15T08:18:50.616Z,594.3
2023-03-15T08:19:52.849Z,594
2023-03-15T08:20:55.090Z,594
2023-03-15T08:21:57.090Z,594
2023-03-15T08:22:59.648Z,594.1
2023-03-15T08:24:02.187Z,594.1
2023-03-15T08:25:04.413Z,594.2
2023-03-15T08:26:06.352Z,594
2023-03-15T08:27:08.707Z,593.8
2023-03-15T08:28:10.994Z,593.9
2023-03-15T08:29:13.390Z,594
2023-03-15T08:30:15.954Z,593.7
2023-03-15T08:31:18.485Z,593.9
2023-03-15T08:32:21.032Z,593.5
2023-03-15T08:33:23.592Z,593.3
2023-03-15T08:34:25.839Z,593.5
2023-03-15T08:35:28.635Z,593.9
2023-03-15T08:36:31.468Z,593.7
2023-03-15T08:37:33.400Z,593.9
2023-03-15T08:38:36.025Z,593.8
2023-03-15T08:39:38.017Z,594.1
2023-03-15T08:40:41.519Z,594
2023-03-15T08:41:43.776Z,594
2023-03-15T08:42:46.071Z,594.1
2023-03-15T08:43:48.623Z,594
2023-03-15T08:44:51.253Z,594
2023-03-15T08:46:59.380Z,593.6
2023-03-15T08:48:01.721Z,594.1
2023-03-15T08:49:03.957Z,593.9
2023-03-15T08:50:06.268Z,594.4
2023-03-15T08:51:08.662Z,594.3
2023-03-15T08:52:11.242Z,594.6
2023-03-15T08:53:13.776Z,594.4
2023-03-15T08:54:16.108Z,594.4
2023-03-15T08:55:18.363Z,594.2
2023-03-15T08:56:20.903Z,593.9
2023-03-15T08:57:22.857Z,594.1
2023-03-15T08:58:25.133Z,594.7
2023-03-15T09:00:33.403Z,594.2
2023-03-15T09:01:36.051Z,594.5
2023-03-15T09:02:39.165Z,594.5
2023-03-15T09:03:41.238Z,594.9
2023-03-15T09:04:44.507Z,594.3
2023-03-15T09:05:46.792Z,593.9
2023-03-15T09:06:49.037Z,594.2
2023-03-15T09:07:51.624Z,594.1
2023-03-15T09:08:54.170Z,594.6
2023-03-15T09:09:56.452Z,594
2023-03-15T09:10:59.026Z,593.5
2023-03-15T09:12:01.334Z,594
2023-03-15T09:13:03.934Z,594.5
2023-03-15T09:14:05.913Z,594.1
2023-03-15T09:15:09.961Z,594.2
2023-03-15T09:16:12.665Z,594.6
2023-03-15T09:17:15.457Z,594.5
2023-03-15T09:18:17.726Z,594.5
2023-03-15T09:19:20.269Z,594.4
2023-03-15T09:20:22.257Z,594.6
2023-03-15T09:21:24.858Z,594.5
2023-03-15T09:23:32.092Z,594
2023-03-15T09:24:34.065Z,594.6
2023-03-15T09:25:36.297Z,594.5
2023-03-15T09:26:38.807Z,594.3
2023-03-15T09:27:41.317Z,594.5
2023-03-15T09:28:43.866Z,594.1
2023-03-15T09:29:46.451Z,593.9
2023-03-15T09:30:49.264Z,594.2
2023-03-15T09:31:52.061Z,594
2023-03-15T09:32:54.643Z,593.9
2023-03-15T09:33:56.943Z,594.2
2023-03-15T09:34:59.529Z,594
2023-03-15T09:36:02.442Z,593.6
2023-03-15T09:37:04.683Z,594.1
2023-03-15T09:38:07.242Z,594.1
2023-03-15T09:39:09.471Z,593.9
2023-03-15T09:40:11.750Z,593.7
2023-03-15T09:41:14.269Z,594
2023-03-15T09:42:16.770Z,593.8
2023-03-15T09:43:19.034Z,593.7
2023-03-15T09:44:21.306Z,593.2
2023-03-15T09:45:23.854Z,593.2
2023-03-15T09:46:26.528Z,593.4
2023-03-15T09:47:29.204Z,593.2
2023-03-15T09:48:31.800Z,593.4
2023-03-15T09:49:34.327Z,593.1
2023-03-15T09:50:36.598Z,592.6
2023-03-15T09:51:39.133Z,593.2
2023-03-15T09:52:41.673Z,593.1
2023-03-15T09:53:43.923Z,593.2
2023-03-15T09:54:45.871Z,592.9
2023-03-15T09:55:48.408Z,593.1
2023-03-15T09:56:50.932Z,592.5
2023-03-15T09:57:52.676Z,592.2
2023-03-15T09:58:54.923Z,592.4
2023-03-15T09:59:57.493Z,592.6
2023-03-15T10:01:00.017Z,592.2
2023-03-15T10:02:02.991Z,592.3
2023-03-15T10:03:05.447Z,591.9
2023-03-15T10:04:08.002Z,591
2023-03-15T10:05:10.576Z,591.2
2023-03-15T10:06:13.102Z,590.7
2023-03-15T10:07:15.660Z,590.4
2023-03-15T10:08:17.910Z,590.8
2023-03-15T10:09:20.425Z,590.4
2023-03-15T10:10:23.246Z,590.2
2023-03-15T10:11:25.235Z,590.7
2023-03-15T10:12:27.760Z,590.7
2023-03-15T10:13:30.459Z,591.5
2023-03-15T10:14:32.712Z,590.9
2023-03-15T10:15:34.691Z,591.1
2023-03-15T10:16:37.227Z,590.6
2023-03-15T10:17:39.773Z,591.3
2023-03-15T10:18:42.399Z,590.6
2023-03-15T10:19:44.963Z,591.9
2023-03-15T10:20:47.459Z,591
2023-03-15T10:21:50.031Z,591.4
2023-03-15T10:22:51.967Z,591.4
2023-03-15T10:23:54.524Z,592.1
2023-03-15T10:24:56.756Z,592
2023-03-15T10:25:59.277Z,592.3
2023-03-15T10:27:01.530Z,592.1
2023-03-15T10:28:04.075Z,592.1
2023-03-15T10:29:06.325Z,592.4
2023-03-15T10:30:08.854Z,592.7
2023-03-15T10:31:13.823Z,592.4
2023-03-15T10:32:18.339Z,592.1
2023-03-15T10:33:20.899Z,592.7
2023-03-15T10:34:23.590Z,592.6
2023-03-15T10:35:26.169Z,592.7
2023-03-15T10:36:28.988Z,592.8
2023-03-15T10:37:31.526Z,592.5
2023-03-15T10:38:33.790Z,592.3
2023-03-15T10:39:36.032Z,592.1
2023-03-15T10:40:38.546Z,592.1
2023-03-15T10:41:40.824Z,592.3
2023-03-15T10:42:43.349Z,592
2023-03-15T10:43:45.878Z,591.2
2023-03-15T10:44:48.391Z,591.7
2023-03-15T10:45:53.955Z,592.4
2023-03-15T10:46:56.818Z,592.3
2023-03-15T10:49:04.074Z,592.8
2023-03-15T10:50:06.804Z,593
2023-03-15T10:51:09.383Z,592.9
2023-03-15T10:52:11.909Z,593.1
2023-03-15T10:53:14.156Z,593.2
2023-03-15T10:54:16.129Z,593
2023-03-15T10:55:18.369Z,592.9
2023-03-15T10:56:21.127Z,592.9
2023-03-15T10:57:23.664Z,593
2023-03-15T10:58:27.874Z,592.8
2023-03-15T10:59:30.115Z,593.4
2023-03-15T11:00:32.658Z,592.9
2023-03-15T11:01:35.419Z,592.6
2023-03-15T11:02:38.230Z,593.1
2023-03-15T11:03:40.954Z,593.1
2023-03-15T11:04:43.502Z,592.9
2023-03-15T11:05:45.832Z,592.9
2023-03-15T11:06:48.461Z,593.5
2023-03-15T11:07:50.724Z,593.2
2023-03-15T11:08:52.991Z,592.9
2023-03-15T11:09:54.951Z,593.7
2023-03-15T11:10:57.467Z,593.5
2023-03-15T11:11:59.821Z,593.5
2023-03-15T11:13:02.335Z,593.4
2023-03-15T11:14:04.599Z,593.5
2023-03-15T11:15:06.746Z,593.4
2023-03-15T11:16:09.563Z,593
2023-03-15T11:17:11.800Z,593.5
2023-03-15T11:18:13.801Z,592.8
2023-03-15T11:19:16.357Z,592.9
2023-03-15T11:20:18.994Z,593.1
2023-03-15T11:21:21.713Z,592.9
2023-03-15T11:22:24.274Z,593.4
2023-03-15T11:23:26.818Z,593.1
2023-03-15T11:24:29.729Z,593.7
2023-03-15T11:25:31.514Z,593.2
2023-03-15T11:26:35.211Z,593.8
2023-03-15T11:27:37.755Z,593.6
2023-03-15T11:28:40.178Z,593.6
2023-03-15T11:29:42.103Z,594.2
2023-03-15T11:30:44.059Z,594.4
2023-03-15T11:31:46.996Z,594.3
2023-03-15T11:32:49.618Z,593.5
2023-03-15T11:33:52.154Z,593.5
2023-03-15T11:34:54.714Z,593.4
2023-03-15T11:35:57.551Z,593.5
2023-03-15T11:39:09.874Z,593.3
2023-03-15T11:41:17.411Z,593.6
2023-03-15T11:42:19.632Z,593.7
2023-03-15T11:43:22.218Z,594
2023-03-15T11:44:24.780Z,594.2
2023-03-15T11:45:27.258Z,594.1
2023-03-15T11:46:29.638Z,594
2023-03-15T11:47:32.175Z,594.6
2023-03-15T11:48:34.697Z,594.3
2023-03-15T11:49:37.259Z,594.4
2023-03-15T11:51:44.738Z,594.2
2023-03-15T11:52:47.268Z,594.6
2023-03-15T11:53:49.527Z,594.4
2023-03-15T11:54:51.857Z,594.5
2023-03-15T11:55:54.182Z,594.8
2023-03-15T11:56:56.441Z,595.5
2023-03-15T11:57:59.058Z,595.7
2023-03-15T11:59:03.142Z,595.3
2023-03-15T12:00:05.983Z,595.4
2023-03-15T12:01:08.518Z,595.3
2023-03-15T12:02:11.574Z,595.4
2023-03-15T12:03:14.055Z,596.2
2023-03-15T12:04:17.853Z,596.2
2023-03-15T12:05:20.568Z,595.9
2023-03-15T12:06:23.082Z,595.7
2023-03-15T12:07:25.691Z,596.3
2023-03-15T12:08:28.248Z,595.8
2023-03-15T12:09:30.780Z,596.4
2023-03-15T12:10:33.098Z,597
2023-03-15T12:11:35.658Z,597.3
2023-03-15T12:12:38.126Z,597.1
2023-03-15T12:13:40.077Z,597.4
2023-03-15T12:14:42.585Z,597.6
2023-03-15T12:15:44.837Z,597.5
2023-03-15T12:16:47.564Z,597.6
2023-03-15T12:17:49.868Z,597.5
2023-03-15T12:18:52.400Z,597.5
2023-03-15T12:19:54.351Z,597.5
2023-03-15T12:20:56.625Z,597.2
2023-03-15T12:21:58.903Z,597.3
2023-03-15T12:23:01.657Z,598.1
2023-03-15T12:24:03.940Z,597.5
2023-03-15T12:25:06.195Z,597.9
2023-03-15T12:26:08.814Z,598.4
2023-03-15T12:27:11.060Z,598.3
2023-03-15T12:28:13.555Z,598.4
2023-03-15T12:29:16.093Z,598.3
2023-03-15T12:30:18.637Z,598.5
2023-03-15T12:31:21.672Z,598.5
2023-03-15T12:32:24.551Z,598.7
2023-03-15T12:33:27.097Z,598.5
2023-03-15T12:34:29.624Z,598.7
2023-03-15T12:35:32.302Z,598.6
2023-03-15T12:36:34.587Z,598.4
2023-03-15T12:37:36.724Z,599
2023-03-15T12:38:38.977Z,599.3
2023-03-15T12:39:41.544Z,598.1
2023-03-15T12:40:43.794Z,599
2023-03-15T12:41:46.445Z,598.9
2023-03-15T12:42:48.993Z,598.7
2023-03-15T12:43:51.210Z,599.1
2023-03-15T12:44:53.724Z,599.2
2023-03-15T12:45:56.399Z,599
2023-03-15T12:46:57.838Z,599.4
2023-03-15T12:48:00.354Z,599.2
2023-03-15T12:49:02.948Z,599.4
2023-03-15T12:50:04.928Z,599.2
2023-03-15T12:51:07.463Z,599.3
2023-03-15T12:52:10.027Z,598.9
2023-03-15T12:53:11.965Z,599.2
2023-03-15T12:54:14.470Z,598.8
2023-03-15T12:55:17.041Z,598.8
2023-03-15T12:56:19.625Z,599.8
2023-03-15T12:57:21.684Z,599
2023-03-15T12:58:23.957Z,598.9
2023-03-15T12:59:26.513Z,598.7
2023-03-15T13:00:28.758Z,598.9
2023-03-15T13:01:31.547Z,598.7
2023-03-15T13:03:39.585Z,598.9
2023-03-15T13:04:42.137Z,598.3
2023-03-15T13:06:49.085Z,598.5
2023-03-15T13:08:56.361Z,598.9
2023-03-15T13:09:58.872Z,598
2023-03-15T13:11:01.128Z,598.3
2023-03-15T13:12:03.689Z,598.3
2023-03-15T13:13:06.334Z,598.2
2023-03-15T13:14:08.636Z,597.9
2023-03-15T13:15:11.169Z,598.5
2023-03-15T13:16:13.805Z,598.1
2023-03-15T13:17:16.495Z,598.3
2023-03-15T13:18:19.322Z,598.2
2023-03-15T13:19:21.328Z,598.2
2023-03-15T13:20:23.957Z,598.4
2023-03-15T13:21:26.472Z,599
2023-03-15T13:22:29.051Z,598.6
2023-03-15T13:23:31.047Z,598.7
2023-03-15T13:24:33.591Z,598
2023-03-15T13:25:36.125Z,598.4
2023-03-15T13:26:38.372Z,598.1
2023-03-15T13:27:40.931Z,598.5
2023-03-15T13:28:43.583Z,598.6
2023-03-15T13:29:46.130Z,598.5
2023-03-15T13:30:48.374Z,598.3
2023-03-15T13:31:50.594Z,598.1
2023-03-15T13:32:53.317Z,598.4
2023-03-15T13:33:55.897Z,598.8
2023-03-15T13:34:57.868Z,598.1
2023-03-15T13:36:00.300Z,598.4
2023-03-15T13:37:02.868Z,598
2023-03-15T13:38:05.120Z,598.5
2023-03-15T13:39:07.405Z,598
2023-03-15T13:40:10.058Z,598.4
2023-03-15T13:41:12.586Z,598.4
2023-03-15T13:42:15.108Z,597.8
2023-03-15T13:43:17.667Z,597.9